Terminal Aerodrome Forecast
Issued by NWS

Current Version | Previous Version | Graphics & Text | Print | Product List | Glossary On
Versions: 1 2 3 4 5 6 7 8 9 10 11 12 13 14 15 16 17 18 19
000
FTUS41 KILN 201122
TAFLUK
TAF
KLUK 201122Z 2012/2112 21005KT P6SM FEW250
     FM201600 20009KT P6SM SCT250
     FM210500 20009KT P6SM SCT250 WS020/22040KT=

USA.gov is the U.S. government's official web portal to all federal, state and local government web resources and services.